sensor_id;sensor_type;location;lat;lon;timestamp;P1;durP1;ratioP1;P2;durP2;ratioP2
10920;SDS011;5513;50.580;8.818;2022-09-09T00:02:01;4.30;;;1.80;;
10920;SDS011;5513;50.580;8.818;2022-09-09T00:04:33;4.90;;;1.73;;
10920;SDS011;5513;50.580;8.818;2022-09-09T00:07:03;7.63;;;2.10;;
10920;SDS011;5513;50.580;8.818;2022-09-09T00:09:44;6.30;;;1.80;;
10920;SDS011;5513;50.580;8.818;2022-09-09T00:12:17;4.40;;;1.70;;
10920;SDS011;5513;50.580;8.818;2022-09-09T00:14:54;6.43;;;2.10;;
10920;SDS011;5513;50.580;8.818;2022-09-09T00:17:33;6.20;;;1.90;;
10920;SDS011;5513;50.580;8.818;2022-09-09T00:20:10;3.30;;;1.73;;
10920;SDS011;5513;50.580;8.818;2022-09-09T00:22:43;5.80;;;2.10;;
10920;SDS011;5513;50.580;8.818;2022-09-09T00:25:23;3.73;;;1.60;;
10920;SDS011;5513;50.580;8.818;2022-09-09T00:27:59;4.80;;;1.70;;
10920;SDS011;5513;50.580;8.818;2022-09-09T00:30:29;3.40;;;1.70;;
10920;SDS011;5513;50.580;8.818;2022-09-09T00:33:08;4.00;;;1.80;;
10920;SDS011;5513;50.580;8.818;2022-09-09T00:35:44;3.37;;;1.80;;
10920;SDS011;5513;50.580;8.818;2022-09-09T00:38:18;4.03;;;1.77;;
10920;SDS011;5513;50.580;8.818;2022-09-09T00:40:55;2.37;;;1.63;;
10920;SDS011;5513;50.580;8.818;2022-09-09T00:43:31;4.87;;;1.70;;
10920;SDS011;5513;50.580;8.818;2022-09-09T00:46:09;3.47;;;1.63;;
10920;SDS011;5513;50.580;8.818;2022-09-09T00:49:04;3.67;;;1.70;;
10920;SDS011;5513;50.580;8.818;2022-09-09T00:51:44;6.00;;;1.60;;
10920;SDS011;5513;50.580;8.818;2022-09-09T00:54:24;3.50;;;1.70;;
10920;SDS011;5513;50.580;8.818;2022-09-09T00:57:07;6.13;;;1.70;;
10920;SDS011;5513;50.580;8.818;2022-09-09T00:59:47;3.03;;;1.80;;
10920;SDS011;5513;50.580;8.818;2022-09-09T01:02:21;3.10;;;1.57;;
10920;SDS011;5513;50.580;8.818;2022-09-09T01:04:58;5.70;;;1.50;;
10920;SDS011;5513;50.580;8.818;2022-09-09T01:07:32;3.33;;;1.70;;
10920;SDS011;5513;50.580;8.818;2022-09-09T01:10:00;3.67;;;1.60;;
10920;SDS011;5513;50.580;8.818;2022-09-09T01:12:37;4.27;;;1.70;;
10920;SDS011;5513;50.580;8.818;2022-09-09T01:15:12;6.03;;;1.60;;
10920;SDS011;5513;50.580;8.818;2022-09-09T01:17:49;4.83;;;1.97;;
10920;SDS011;5513;50.580;8.818;2022-09-09T01:20:23;3.10;;;1.80;;
10920;SDS011;5513;50.580;8.818;2022-09-09T01:23:04;2.93;;;1.60;;
10920;SDS011;5513;50.580;8.818;2022-09-09T01:28:51;5.57;;;2.60;;
10920;SDS011;5513;50.580;8.818;2022-09-09T01:31:21;6.00;;;2.13;;
10920;SDS011;5513;50.580;8.818;2022-09-09T01:33:54;4.43;;;2.00;;
10920;SDS011;5513;50.580;8.818;2022-09-09T01:36:25;4.63;;;1.83;;
10920;SDS011;5513;50.580;8.818;2022-09-09T01:38:59;4.90;;;1.80;;
10920;SDS011;5513;50.580;8.818;2022-09-09T01:41:29;4.13;;;1.93;;
10920;SDS011;5513;50.580;8.818;2022-09-09T01:43:58;4.10;;;1.70;;
10920;SDS011;5513;50.580;8.818;2022-09-09T01:46:29;5.87;;;2.07;;
10920;SDS011;5513;50.580;8.818;2022-09-09T01:48:57;6.47;;;2.07;;
10920;SDS011;5513;50.580;8.818;2022-09-09T01:51:28;4.97;;;2.10;;
10920;SDS011;5513;50.580;8.818;2022-09-09T01:53:57;4.07;;;1.77;;
10920;SDS011;5513;50.580;8.818;2022-09-09T01:56:31;6.33;;;2.33;;
10920;SDS011;5513;50.580;8.818;2022-09-09T01:59:11;4.13;;;2.03;;
10920;SDS011;5513;50.580;8.818;2022-09-09T02:01:56;6.00;;;2.20;;
10920;SDS011;5513;50.580;8.818;2022-09-09T02:04:36;5.43;;;2.50;;
10920;SDS011;5513;50.580;8.818;2022-09-09T02:07:09;4.23;;;2.20;;
10920;SDS011;5513;50.580;8.818;2022-09-09T02:10:03;3.93;;;2.30;;
10920;SDS011;5513;50.580;8.818;2022-09-09T02:12:41;6.47;;;2.20;;
10920;SDS011;5513;50.580;8.818;2022-09-09T02:15:16;4.50;;;1.80;;
10920;SDS011;5513;50.580;8.818;2022-09-09T02:17:50;4.97;;;2.47;;
10920;SDS011;5513;50.580;8.818;2022-09-09T02:20:20;3.37;;;2.20;;
10920;SDS011;5513;50.580;8.818;2022-09-09T02:22:50;5.83;;;2.47;;
10920;SDS011;5513;50.580;8.818;2022-09-09T02:25:22;3.40;;;2.20;;
10920;SDS011;5513;50.580;8.818;2022-09-09T02:27:57;5.77;;;2.20;;
10920;SDS011;5513;50.580;8.818;2022-09-09T02:30:28;6.97;;;2.10;;
10920;SDS011;5513;50.580;8.818;2022-09-09T02:33:01;6.93;;;2.40;;
10920;SDS011;5513;50.580;8.818;2022-09-09T02:35:35;7.67;;;2.40;;
10920;SDS011;5513;50.580;8.818;2022-09-09T02:38:05;8.97;;;2.33;;
10920;SDS011;5513;50.580;8.818;2022-09-09T02:40:41;5.53;;;2.53;;
10920;SDS011;5513;50.580;8.818;2022-09-09T02:43:15;2.93;;;1.93;;
10920;SDS011;5513;50.580;8.818;2022-09-09T02:45:47;5.80;;;2.30;;
10920;SDS011;5513;50.580;8.818;2022-09-09T02:48:21;5.13;;;2.10;;
10920;SDS011;5513;50.580;8.818;2022-09-09T02:50:57;6.80;;;2.20;;
10920;SDS011;5513;50.580;8.818;2022-09-09T02:53:36;6.20;;;2.23;;
10920;SDS011;5513;50.580;8.818;2022-09-09T02:56:13;5.50;;;2.20;;
10920;SDS011;5513;50.580;8.818;2022-09-09T02:58:46;6.60;;;2.40;;
10920;SDS011;5513;50.580;8.818;2022-09-09T03:01:16;4.80;;;2.57;;
10920;SDS011;5513;50.580;8.818;2022-09-09T03:03:44;4.47;;;2.60;;
10920;SDS011;5513;50.580;8.818;2022-09-09T03:06:13;7.60;;;2.57;;
10920;SDS011;5513;50.580;8.818;2022-09-09T03:08:41;5.80;;;2.40;;
10920;SDS011;5513;50.580;8.818;2022-09-09T03:11:14;5.10;;;2.23;;
10920;SDS011;5513;50.580;8.818;2022-09-09T03:13:43;6.70;;;2.70;;
10920;SDS011;5513;50.580;8.818;2022-09-09T03:16:13;6.93;;;2.63;;
10920;SDS011;5513;50.580;8.818;2022-09-09T03:18:42;4.53;;;2.30;;
10920;SDS011;5513;50.580;8.818;2022-09-09T03:21:13;4.50;;;2.47;;
10920;SDS011;5513;50.580;8.818;2022-09-09T03:23:42;4.63;;;2.30;;
10920;SDS011;5513;50.580;8.818;2022-09-09T03:26:11;7.40;;;2.70;;
10920;SDS011;5513;50.580;8.818;2022-09-09T03:28:41;4.90;;;2.40;;
10920;SDS011;5513;50.580;8.818;2022-09-09T03:31:11;5.57;;;2.57;;
10920;SDS011;5513;50.580;8.818;2022-09-09T03:33:41;3.73;;;2.13;;
10920;SDS011;5513;50.580;8.818;2022-09-09T03:36:09;3.43;;;2.27;;
10920;SDS011;5513;50.580;8.818;2022-09-09T03:38:37;6.47;;;2.60;;
10920;SDS011;5513;50.580;8.818;2022-09-09T03:41:08;6.53;;;2.67;;
10920;SDS011;5513;50.580;8.818;2022-09-09T03:43:36;3.77;;;2.40;;
10920;SDS011;5513;50.580;8.818;2022-09-09T03:46:04;3.90;;;2.33;;
10920;SDS011;5513;50.580;8.818;2022-09-09T03:48:35;5.73;;;2.30;;
10920;SDS011;5513;50.580;8.818;2022-09-09T03:51:04;6.73;;;2.73;;
10920;SDS011;5513;50.580;8.818;2022-09-09T03:53:34;4.37;;;2.67;;
10920;SDS011;5513;50.580;8.818;2022-09-09T03:56:03;5.90;;;2.30;;
10920;SDS011;5513;50.580;8.818;2022-09-09T03:58:35;3.03;;;2.20;;
10920;SDS011;5513;50.580;8.818;2022-09-09T04:01:05;5.33;;;2.67;;
10920;SDS011;5513;50.580;8.818;2022-09-09T04:03:37;6.37;;;2.47;;
10920;SDS011;5513;50.580;8.818;2022-09-09T04:06:07;6.17;;;2.60;;
10920;SDS011;5513;50.580;8.818;2022-09-09T04:08:38;6.47;;;2.60;;
10920;SDS011;5513;50.580;8.818;2022-09-09T04:11:08;5.57;;;2.20;;
10920;SDS011;5513;50.580;8.818;2022-09-09T04:13:37;5.13;;;2.43;;
10920;SDS011;5513;50.580;8.818;2022-09-09T04:16:09;5.73;;;2.30;;
10920;SDS011;5513;50.580;8.818;2022-09-09T04:18:42;6.17;;;2.70;;
10920;SDS011;5513;50.580;8.818;2022-09-09T04:21:11;7.80;;;2.63;;
10920;SDS011;5513;50.580;8.818;2022-09-09T04:23:41;3.77;;;2.50;;
10920;SDS011;5513;50.580;8.818;2022-09-09T04:26:12;5.60;;;2.90;;
10920;SDS011;5513;50.580;8.818;2022-09-09T04:28:40;5.27;;;2.40;;
10920;SDS011;5513;50.580;8.818;2022-09-09T04:31:10;4.27;;;2.27;;
10920;SDS011;5513;50.580;8.818;2022-09-09T04:33:45;3.93;;;2.40;;
10920;SDS011;5513;50.580;8.818;2022-09-09T04:36:15;3.73;;;2.30;;
10920;SDS011;5513;50.580;8.818;2022-09-09T04:38:47;2.60;;;2.10;;
10920;SDS011;5513;50.580;8.818;2022-09-09T04:41:16;3.37;;;2.10;;
10920;SDS011;5513;50.580;8.818;2022-09-09T04:43:44;5.70;;;2.10;;
10920;SDS011;5513;50.580;8.818;2022-09-09T04:46:13;6.87;;;2.40;;
10920;SDS011;5513;50.580;8.818;2022-09-09T04:48:43;4.60;;;2.70;;
10920;SDS011;5513;50.580;8.818;2022-09-09T04:51:22;5.03;;;2.30;;
10920;SDS011;5513;50.580;8.818;2022-09-09T04:53:51;3.70;;;2.30;;
10920;SDS011;5513;50.580;8.818;2022-09-09T04:56:22;5.20;;;2.70;;
10920;SDS011;5513;50.580;8.818;2022-09-09T04:58:53;6.37;;;2.70;;
10920;SDS011;5513;50.580;8.818;2022-09-09T05:01:25;5.77;;;2.60;;
10920;SDS011;5513;50.580;8.818;2022-09-09T05:03:53;11.63;;;2.70;;
10920;SDS011;5513;50.580;8.818;2022-09-09T05:06:28;6.20;;;3.07;;
10920;SDS011;5513;50.580;8.818;2022-09-09T05:08:57;6.50;;;2.70;;
10920;SDS011;5513;50.580;8.818;2022-09-09T05:11:28;5.37;;;2.40;;
10920;SDS011;5513;50.580;8.818;2022-09-09T05:13:58;4.60;;;2.37;;
10920;SDS011;5513;50.580;8.818;2022-09-09T05:16:27;5.63;;;2.93;;
10920;SDS011;5513;50.580;8.818;2022-09-09T05:18:56;6.07;;;2.57;;
10920;SDS011;5513;50.580;8.818;2022-09-09T05:21:26;6.53;;;2.90;;
10920;SDS011;5513;50.580;8.818;2022-09-09T05:23:56;6.03;;;2.77;;
10920;SDS011;5513;50.580;8.818;2022-09-09T05:26:26;5.50;;;2.90;;
10920;SDS011;5513;50.580;8.818;2022-09-09T05:28:57;4.47;;;2.87;;
10920;SDS011;5513;50.580;8.818;2022-09-09T05:31:27;6.30;;;2.73;;
10920;SDS011;5513;50.580;8.818;2022-09-09T05:33:58;6.60;;;3.10;;
10920;SDS011;5513;50.580;8.818;2022-09-09T05:36:27;7.60;;;2.90;;
10920;SDS011;5513;50.580;8.818;2022-09-09T05:38:56;4.83;;;3.17;;
10920;SDS011;5513;50.580;8.818;2022-09-09T05:41:26;6.43;;;2.90;;
10920;SDS011;5513;50.580;8.818;2022-09-09T05:43:55;5.67;;;2.77;;
10920;SDS011;5513;50.580;8.818;2022-09-09T05:46:25;9.00;;;2.90;;
10920;SDS011;5513;50.580;8.818;2022-09-09T05:48:54;4.97;;;2.53;;
10920;SDS011;5513;50.580;8.818;2022-09-09T05:51:23;4.23;;;2.70;;
10920;SDS011;5513;50.580;8.818;2022-09-09T05:53:56;8.47;;;2.97;;
10920;SDS011;5513;50.580;8.818;2022-09-09T05:56:26;5.93;;;2.80;;
10920;SDS011;5513;50.580;8.818;2022-09-09T05:58:56;6.60;;;2.90;;
10920;SDS011;5513;50.580;8.818;2022-09-09T06:01:29;6.50;;;3.17;;
10920;SDS011;5513;50.580;8.818;2022-09-09T06:03:59;10.97;;;3.23;;
10920;SDS011;5513;50.580;8.818;2022-09-09T06:06:30;7.90;;;3.40;;
10920;SDS011;5513;50.580;8.818;2022-09-09T06:09:05;7.33;;;3.20;;
10920;SDS011;5513;50.580;8.818;2022-09-09T06:11:37;8.53;;;2.87;;
10920;SDS011;5513;50.580;8.818;2022-09-09T06:14:07;8.80;;;3.17;;
10920;SDS011;5513;50.580;8.818;2022-09-09T06:16:37;6.27;;;3.20;;
10920;SDS011;5513;50.580;8.818;2022-09-09T06:19:06;6.63;;;3.10;;
10920;SDS011;5513;50.580;8.818;2022-09-09T06:21:36;7.73;;;2.80;;
10920;SDS011;5513;50.580;8.818;2022-09-09T06:24:06;5.00;;;3.23;;
10920;SDS011;5513;50.580;8.818;2022-09-09T06:26:36;5.83;;;2.73;;
10920;SDS011;5513;50.580;8.818;2022-09-09T06:29:07;4.70;;;2.97;;
10920;SDS011;5513;50.580;8.818;2022-09-09T06:31:37;8.10;;;3.13;;
10920;SDS011;5513;50.580;8.818;2022-09-09T06:34:08;4.83;;;2.87;;
10920;SDS011;5513;50.580;8.818;2022-09-09T06:36:36;4.50;;;2.73;;
10920;SDS011;5513;50.580;8.818;2022-09-09T06:39:09;7.30;;;2.90;;
10920;SDS011;5513;50.580;8.818;2022-09-09T06:41:40;6.97;;;2.70;;
10920;SDS011;5513;50.580;8.818;2022-09-09T06:44:09;8.90;;;2.70;;
10920;SDS011;5513;50.580;8.818;2022-09-09T06:46:39;6.10;;;2.87;;
10920;SDS011;5513;50.580;8.818;2022-09-09T06:49:08;5.77;;;2.70;;
10920;SDS011;5513;50.580;8.818;2022-09-09T06:51:38;5.03;;;2.70;;
10920;SDS011;5513;50.580;8.818;2022-09-09T06:54:11;4.10;;;2.30;;
10920;SDS011;5513;50.580;8.818;2022-09-09T06:56:42;5.10;;;2.20;;
10920;SDS011;5513;50.580;8.818;2022-09-09T06:59:13;5.07;;;2.10;;
10920;SDS011;5513;50.580;8.818;2022-09-09T07:01:41;5.93;;;2.50;;
10920;SDS011;5513;50.580;8.818;2022-09-09T07:04:12;6.97;;;2.67;;
10920;SDS011;5513;50.580;8.818;2022-09-09T07:06:41;3.97;;;2.50;;
10920;SDS011;5513;50.580;8.818;2022-09-09T07:09:13;4.20;;;2.43;;
10920;SDS011;5513;50.580;8.818;2022-09-09T07:11:43;5.87;;;2.10;;
10920;SDS011;5513;50.580;8.818;2022-09-09T07:14:13;3.77;;;2.40;;
10920;SDS011;5513;50.580;8.818;2022-09-09T07:16:42;7.70;;;2.97;;
10920;SDS011;5513;50.580;8.818;2022-09-09T07:19:11;4.00;;;2.27;;
10920;SDS011;5513;50.580;8.818;2022-09-09T07:21:41;5.00;;;2.13;;
10920;SDS011;5513;50.580;8.818;2022-09-09T07:24:10;4.53;;;2.30;;
10920;SDS011;5513;50.580;8.818;2022-09-09T07:26:41;3.60;;;2.20;;
10920;SDS011;5513;50.580;8.818;2022-09-09T07:29:10;5.53;;;2.17;;
10920;SDS011;5513;50.580;8.818;2022-09-09T07:31:46;4.37;;;1.77;;
10920;SDS011;5513;50.580;8.818;2022-09-09T07:34:14;3.97;;;2.00;;
10920;SDS011;5513;50.580;8.818;2022-09-09T07:36:43;6.87;;;2.13;;
10920;SDS011;5513;50.580;8.818;2022-09-09T07:39:13;3.70;;;1.70;;
10920;SDS011;5513;50.580;8.818;2022-09-09T07:41:46;6.50;;;2.10;;
10920;SDS011;5513;50.580;8.818;2022-09-09T07:44:16;5.33;;;2.33;;
10920;SDS011;5513;50.580;8.818;2022-09-09T07:46:48;4.87;;;1.63;;
10920;SDS011;5513;50.580;8.818;2022-09-09T07:49:16;4.30;;;1.70;;
10920;SDS011;5513;50.580;8.818;2022-09-09T07:51:52;7.07;;;2.10;;
10920;SDS011;5513;50.580;8.818;2022-09-09T07:54:21;4.47;;;2.00;;
10920;SDS011;5513;50.580;8.818;2022-09-09T07:56:52;5.17;;;1.70;;
10920;SDS011;5513;50.580;8.818;2022-09-09T07:59:20;6.10;;;2.03;;
10920;SDS011;5513;50.580;8.818;2022-09-09T08:01:51;5.13;;;2.00;;
10920;SDS011;5513;50.580;8.818;2022-09-09T08:04:22;3.47;;;1.57;;
10920;SDS011;5513;50.580;8.818;2022-09-09T08:06:52;4.73;;;2.00;;
10920;SDS011;5513;50.580;8.818;2022-09-09T08:09:23;9.13;;;2.40;;
10920;SDS011;5513;50.580;8.818;2022-09-09T08:11:55;6.73;;;2.47;;
10920;SDS011;5513;50.580;8.818;2022-09-09T08:14:24;5.33;;;2.40;;
10920;SDS011;5513;50.580;8.818;2022-09-09T08:16:53;4.13;;;2.10;;
10920;SDS011;5513;50.580;8.818;2022-09-09T08:19:22;4.27;;;1.90;;
10920;SDS011;5513;50.580;8.818;2022-09-09T08:21:51;3.83;;;2.10;;
10920;SDS011;5513;50.580;8.818;2022-09-09T08:24:20;3.97;;;1.90;;
10920;SDS011;5513;50.580;8.818;2022-09-09T08:26:49;7.57;;;2.63;;
10920;SDS011;5513;50.580;8.818;2022-09-09T08:29:19;7.03;;;2.60;;
10920;SDS011;5513;50.580;8.818;2022-09-09T08:31:48;5.73;;;1.93;;
10920;SDS011;5513;50.580;8.818;2022-09-09T08:34:19;7.50;;;2.50;;
10920;SDS011;5513;50.580;8.818;2022-09-09T08:36:49;5.53;;;2.27;;
10920;SDS011;5513;50.580;8.818;2022-09-09T08:39:19;9.47;;;2.67;;
10920;SDS011;5513;50.580;8.818;2022-09-09T08:42:12;7.07;;;2.67;;
10920;SDS011;5513;50.580;8.818;2022-09-09T08:44:56;8.20;;;2.37;;
10920;SDS011;5513;50.580;8.818;2022-09-09T08:47:46;7.90;;;2.13;;
10920;SDS011;5513;50.580;8.818;2022-09-09T08:50:25;6.27;;;2.30;;
10920;SDS011;5513;50.580;8.818;2022-09-09T08:52:56;5.90;;;2.47;;
10920;SDS011;5513;50.580;8.818;2022-09-09T08:55:34;4.53;;;2.30;;
10920;SDS011;5513;50.580;8.818;2022-09-09T08:58:10;4.63;;;2.00;;
10920;SDS011;5513;50.580;8.818;2022-09-09T09:00:47;3.37;;;2.10;;
10920;SDS011;5513;50.580;8.818;2022-09-09T09:03:30;6.03;;;2.23;;
10920;SDS011;5513;50.580;8.818;2022-09-09T09:06:13;3.67;;;2.07;;
10920;SDS011;5513;50.580;8.818;2022-09-09T09:08:55;3.43;;;1.90;;
10920;SDS011;5513;50.580;8.818;2022-09-09T09:11:33;5.60;;;1.97;;
10920;SDS011;5513;50.580;8.818;2022-09-09T09:14:07;5.97;;;2.00;;
10920;SDS011;5513;50.580;8.818;2022-09-09T09:16:43;6.73;;;1.97;;
10920;SDS011;5513;50.580;8.818;2022-09-09T09:19:18;5.27;;;1.90;;
10920;SDS011;5513;50.580;8.818;2022-09-09T09:21:50;6.70;;;2.10;;
10920;SDS011;5513;50.580;8.818;2022-09-09T09:24:27;3.77;;;1.90;;
10920;SDS011;5513;50.580;8.818;2022-09-09T09:27:11;4.27;;;1.80;;
10920;SDS011;5513;50.580;8.818;2022-09-09T09:29:42;3.57;;;1.53;;
10920;SDS011;5513;50.580;8.818;2022-09-09T09:32:34;4.17;;;1.50;;
10920;SDS011;5513;50.580;8.818;2022-09-09T09:35:06;5.13;;;1.73;;
10920;SDS011;5513;50.580;8.818;2022-09-09T09:37:40;5.20;;;1.60;;
10920;SDS011;5513;50.580;8.818;2022-09-09T09:40:30;5.13;;;1.60;;
10920;SDS011;5513;50.580;8.818;2022-09-09T09:43:00;4.87;;;1.60;;
10920;SDS011;5513;50.580;8.818;2022-09-09T09:45:33;4.53;;;1.60;;
10920;SDS011;5513;50.580;8.818;2022-09-09T09:48:05;3.57;;;1.90;;
10920;SDS011;5513;50.580;8.818;2022-09-09T09:50:45;6.43;;;1.90;;
10920;SDS011;5513;50.580;8.818;2022-09-09T09:53:16;5.53;;;2.40;;
10920;SDS011;5513;50.580;8.818;2022-09-09T09:55:55;4.07;;;2.00;;
10920;SDS011;5513;50.580;8.818;2022-09-09T09:58:26;8.00;;;2.20;;
10920;SDS011;5513;50.580;8.818;2022-09-09T10:00:57;2.67;;;1.70;;
10920;SDS011;5513;50.580;8.818;2022-09-09T10:03:28;5.27;;;1.80;;
10920;SDS011;5513;50.580;8.818;2022-09-09T10:05:58;6.87;;;2.20;;
10920;SDS011;5513;50.580;8.818;2022-09-09T10:08:27;5.03;;;1.90;;
10920;SDS011;5513;50.580;8.818;2022-09-09T10:10:59;4.63;;;1.73;;
10920;SDS011;5513;50.580;8.818;2022-09-09T10:13:39;3.83;;;1.60;;
10920;SDS011;5513;50.580;8.818;2022-09-09T10:16:24;5.13;;;1.50;;
10920;SDS011;5513;50.580;8.818;2022-09-09T10:19:05;3.83;;;1.07;;
10920;SDS011;5513;50.580;8.818;2022-09-09T10:21:51;5.00;;;1.50;;
10920;SDS011;5513;50.580;8.818;2022-09-09T10:24:35;5.23;;;1.50;;
10920;SDS011;5513;50.580;8.818;2022-09-09T10:27:11;5.17;;;1.30;;
10920;SDS011;5513;50.580;8.818;2022-09-09T10:29:51;2.93;;;0.93;;
10920;SDS011;5513;50.580;8.818;2022-09-09T10:32:44;6.57;;;1.10;;
10920;SDS011;5513;50.580;8.818;2022-09-09T10:35:22;5.83;;;1.53;;
10920;SDS011;5513;50.580;8.818;2022-09-09T10:38:03;2.57;;;1.10;;
10920;SDS011;5513;50.580;8.818;2022-09-09T10:40:43;4.73;;;1.47;;
10920;SDS011;5513;50.580;8.818;2022-09-09T10:43:33;6.30;;;1.50;;
10920;SDS011;5513;50.580;8.818;2022-09-09T10:46:20;3.80;;;1.27;;
10920;SDS011;5513;50.580;8.818;2022-09-09T10:49:00;4.30;;;1.37;;
10920;SDS011;5513;50.580;8.818;2022-09-09T10:51:39;4.50;;;1.20;;
10920;SDS011;5513;50.580;8.818;2022-09-09T10:54:23;3.77;;;1.47;;
10920;SDS011;5513;50.580;8.818;2022-09-09T10:57:00;4.83;;;1.53;;
10920;SDS011;5513;50.580;8.818;2022-09-09T10:59:33;4.03;;;1.50;;
10920;SDS011;5513;50.580;8.818;2022-09-09T11:02:06;2.43;;;1.10;;
10920;SDS011;5513;50.580;8.818;2022-09-09T11:04:44;4.43;;;1.40;;
10920;SDS011;5513;50.580;8.818;2022-09-09T11:07:24;5.60;;;1.40;;
10920;SDS011;5513;50.580;8.818;2022-09-09T11:09:58;3.30;;;1.40;;
10920;SDS011;5513;50.580;8.818;2022-09-09T11:12:34;4.87;;;1.70;;
10920;SDS011;5513;50.580;8.818;2022-09-09T11:15:12;5.63;;;1.70;;
10920;SDS011;5513;50.580;8.818;2022-09-09T11:17:48;4.67;;;1.60;;
10920;SDS011;5513;50.580;8.818;2022-09-09T11:20:21;6.97;;;1.70;;
10920;SDS011;5513;50.580;8.818;2022-09-09T11:22:53;6.07;;;2.23;;
10920;SDS011;5513;50.580;8.818;2022-09-09T11:25:28;4.80;;;1.80;;
10920;SDS011;5513;50.580;8.818;2022-09-09T11:28:10;3.90;;;1.83;;
10920;SDS011;5513;50.580;8.818;2022-09-09T11:30:51;6.47;;;2.03;;
10920;SDS011;5513;50.580;8.818;2022-09-09T11:33:34;5.13;;;1.80;;
10920;SDS011;5513;50.580;8.818;2022-09-09T11:36:24;6.37;;;1.90;;
10920;SDS011;5513;50.580;8.818;2022-09-09T11:39:18;3.83;;;1.43;;
10920;SDS011;5513;50.580;8.818;2022-09-09T11:42:15;4.27;;;1.60;;
10920;SDS011;5513;50.580;8.818;2022-09-09T11:44:52;5.73;;;1.70;;
10920;SDS011;5513;50.580;8.818;2022-09-09T11:47:23;3.73;;;1.63;;
10920;SDS011;5513;50.580;8.818;2022-09-09T11:50:06;2.80;;;1.43;;
10920;SDS011;5513;50.580;8.818;2022-09-09T11:53:05;6.53;;;1.90;;
10920;SDS011;5513;50.580;8.818;2022-09-09T11:56:06;5.80;;;1.60;;
10920;SDS011;5513;50.580;8.818;2022-09-09T11:58:38;5.47;;;1.60;;
10920;SDS011;5513;50.580;8.818;2022-09-09T12:04:11;3.57;;;1.60;;
10920;SDS011;5513;50.580;8.818;2022-09-09T12:06:49;4.10;;;1.67;;
10920;SDS011;5513;50.580;8.818;2022-09-09T12:09:25;6.77;;;1.90;;
10920;SDS011;5513;50.580;8.818;2022-09-09T12:12:05;6.50;;;1.80;;
10920;SDS011;5513;50.580;8.818;2022-09-09T12:14:36;4.77;;;2.13;;
10920;SDS011;5513;50.580;8.818;2022-09-09T12:17:17;3.33;;;1.73;;
10920;SDS011;5513;50.580;8.818;2022-09-09T12:19:47;4.50;;;1.60;;
10920;SDS011;5513;50.580;8.818;2022-09-09T12:22:30;5.40;;;1.77;;
10920;SDS011;5513;50.580;8.818;2022-09-09T12:25:17;6.67;;;1.80;;
10920;SDS011;5513;50.580;8.818;2022-09-09T12:27:55;4.20;;;1.50;;
10920;SDS011;5513;50.580;8.818;2022-09-09T12:30:36;2.60;;;1.80;;
10920;SDS011;5513;50.580;8.818;2022-09-09T12:33:19;4.17;;;1.60;;
10920;SDS011;5513;50.580;8.818;2022-09-09T12:35:49;6.30;;;1.97;;
10920;SDS011;5513;50.580;8.818;2022-09-09T12:38:25;4.10;;;1.80;;
10920;SDS011;5513;50.580;8.818;2022-09-09T12:41:01;3.53;;;1.70;;
10920;SDS011;5513;50.580;8.818;2022-09-09T12:43:31;3.83;;;1.67;;
10920;SDS011;5513;50.580;8.818;2022-09-09T12:46:03;4.73;;;1.83;;
10920;SDS011;5513;50.580;8.818;2022-09-09T12:48:39;5.37;;;1.80;;
10920;SDS011;5513;50.580;8.818;2022-09-09T12:51:23;4.13;;;1.90;;
10920;SDS011;5513;50.580;8.818;2022-09-09T12:53:55;3.87;;;1.73;;
10920;SDS011;5513;50.580;8.818;2022-09-09T12:56:25;5.23;;;1.63;;
10920;SDS011;5513;50.580;8.818;2022-09-09T12:58:57;4.93;;;1.60;;
10920;SDS011;5513;50.580;8.818;2022-09-09T13:01:28;5.77;;;1.50;;
10920;SDS011;5513;50.580;8.818;2022-09-09T13:03:58;4.93;;;1.90;;
10920;SDS011;5513;50.580;8.818;2022-09-09T13:06:28;3.60;;;1.40;;
10920;SDS011;5513;50.580;8.818;2022-09-09T13:08:58;6.70;;;1.83;;
10920;SDS011;5513;50.580;8.818;2022-09-09T13:11:30;3.43;;;1.40;;
10920;SDS011;5513;50.580;8.818;2022-09-09T13:14:02;4.63;;;1.70;;
10920;SDS011;5513;50.580;8.818;2022-09-09T13:16:35;4.53;;;1.80;;
10920;SDS011;5513;50.580;8.818;2022-09-09T13:19:13;3.27;;;1.37;;
10920;SDS011;5513;50.580;8.818;2022-09-09T13:21:43;5.93;;;1.60;;
10920;SDS011;5513;50.580;8.818;2022-09-09T13:24:27;6.20;;;1.57;;
10920;SDS011;5513;50.580;8.818;2022-09-09T13:27:01;5.73;;;1.57;;
10920;SDS011;5513;50.580;8.818;2022-09-09T13:29:34;2.47;;;1.17;;
10920;SDS011;5513;50.580;8.818;2022-09-09T13:32:04;4.13;;;1.40;;
10920;SDS011;5513;50.580;8.818;2022-09-09T13:34:35;3.97;;;1.50;;
10920;SDS011;5513;50.580;8.818;2022-09-09T13:37:05;3.77;;;1.23;;
10920;SDS011;5513;50.580;8.818;2022-09-09T13:39:36;6.03;;;1.70;;
10920;SDS011;5513;50.580;8.818;2022-09-09T13:42:19;5.40;;;1.50;;
10920;SDS011;5513;50.580;8.818;2022-09-09T13:44:52;2.87;;;1.27;;
10920;SDS011;5513;50.580;8.818;2022-09-09T13:47:26;3.33;;;1.33;;
10920;SDS011;5513;50.580;8.818;2022-09-09T13:50:09;2.53;;;0.90;;
10920;SDS011;5513;50.580;8.818;2022-09-09T13:52:46;3.60;;;1.43;;
10920;SDS011;5513;50.580;8.818;2022-09-09T13:55:17;3.67;;;1.20;;
10920;SDS011;5513;50.580;8.818;2022-09-09T13:57:52;3.33;;;1.43;;
10920;SDS011;5513;50.580;8.818;2022-09-09T14:00:22;3.83;;;1.03;;
10920;SDS011;5513;50.580;8.818;2022-09-09T14:02:51;3.67;;;1.07;;
10920;SDS011;5513;50.580;8.818;2022-09-09T14:05:21;3.80;;;1.20;;
10920;SDS011;5513;50.580;8.818;2022-09-09T14:07:50;2.93;;;1.27;;
10920;SDS011;5513;50.580;8.818;2022-09-09T14:10:19;4.63;;;1.30;;
10920;SDS011;5513;50.580;8.818;2022-09-09T14:12:48;4.77;;;1.20;;
10920;SDS011;5513;50.580;8.818;2022-09-09T14:15:18;3.67;;;1.30;;
10920;SDS011;5513;50.580;8.818;2022-09-09T14:17:48;1.80;;;0.90;;
10920;SDS011;5513;50.580;8.818;2022-09-09T14:20:16;5.13;;;0.97;;
10920;SDS011;5513;50.580;8.818;2022-09-09T14:22:45;3.83;;;1.00;;
10920;SDS011;5513;50.580;8.818;2022-09-09T14:25:15;2.70;;;0.90;;
10920;SDS011;5513;50.580;8.818;2022-09-09T14:27:43;5.07;;;1.20;;
10920;SDS011;5513;50.580;8.818;2022-09-09T14:30:14;3.37;;;0.90;;
10920;SDS011;5513;50.580;8.818;2022-09-09T14:32:44;3.77;;;0.80;;
10920;SDS011;5513;50.580;8.818;2022-09-09T14:35:13;2.50;;;0.70;;
10920;SDS011;5513;50.580;8.818;2022-09-09T14:37:42;1.80;;;0.80;;
10920;SDS011;5513;50.580;8.818;2022-09-09T14:40:11;1.70;;;0.87;;
10920;SDS011;5513;50.580;8.818;2022-09-09T14:42:40;2.63;;;0.80;;
10920;SDS011;5513;50.580;8.818;2022-09-09T14:45:10;2.53;;;0.97;;
10920;SDS011;5513;50.580;8.818;2022-09-09T14:47:39;3.43;;;1.00;;
10920;SDS011;5513;50.580;8.818;2022-09-09T14:50:11;2.13;;;0.70;;
10920;SDS011;5513;50.580;8.818;2022-09-09T14:52:41;4.63;;;1.27;;
10920;SDS011;5513;50.580;8.818;2022-09-09T14:55:10;2.67;;;1.20;;
10920;SDS011;5513;50.580;8.818;2022-09-09T14:57:39;4.37;;;0.90;;
10920;SDS011;5513;50.580;8.818;2022-09-09T15:00:08;5.30;;;1.60;;
10920;SDS011;5513;50.580;8.818;2022-09-09T15:02:37;6.80;;;1.07;;
10920;SDS011;5513;50.580;8.818;2022-09-09T15:05:07;4.80;;;1.87;;
10920;SDS011;5513;50.580;8.818;2022-09-09T15:07:38;4.40;;;1.23;;
10920;SDS011;5513;50.580;8.818;2022-09-09T15:10:08;4.30;;;1.70;;
10920;SDS011;5513;50.580;8.818;2022-09-09T15:12:37;4.70;;;1.27;;
10920;SDS011;5513;50.580;8.818;2022-09-09T15:15:06;3.47;;;1.17;;
10920;SDS011;5513;50.580;8.818;2022-09-09T15:17:35;3.10;;;1.13;;
10920;SDS011;5513;50.580;8.818;2022-09-09T15:20:04;3.10;;;1.10;;
10920;SDS011;5513;50.580;8.818;2022-09-09T15:22:33;3.97;;;1.80;;
10920;SDS011;5513;50.580;8.818;2022-09-09T15:25:05;4.47;;;1.00;;
10920;SDS011;5513;50.580;8.818;2022-09-09T15:27:35;3.30;;;1.17;;
10920;SDS011;5513;50.580;8.818;2022-09-09T15:30:05;4.47;;;0.93;;
10920;SDS011;5513;50.580;8.818;2022-09-09T15:32:34;4.97;;;1.17;;
10920;SDS011;5513;50.580;8.818;2022-09-09T15:35:03;2.20;;;0.80;;
10920;SDS011;5513;50.580;8.818;2022-09-09T15:37:32;3.93;;;0.90;;
10920;SDS011;5513;50.580;8.818;2022-09-09T15:40:00;2.87;;;0.83;;
10920;SDS011;5513;50.580;8.818;2022-09-09T15:42:30;1.83;;;0.70;;
10920;SDS011;5513;50.580;8.818;2022-09-09T15:44:58;2.57;;;1.00;;